createdAt,value
2023-08-12T00:01:27.429Z,18.80
2023-08-12T00:03:55.142Z,18.75
2023-08-12T00:06:22.712Z,18.64
2023-08-12T00:08:50.171Z,18.52
2023-08-12T00:11:17.537Z,18.60
2023-08-12T00:13:45.395Z,18.62
2023-08-12T00:16:12.880Z,18.61
2023-08-12T00:18:40.414Z,18.59
2023-08-12T00:21:09.261Z,18.50
2023-08-12T00:23:39.769Z,18.51
2023-08-12T00:26:07.966Z,18.62
2023-08-12T00:28:35.494Z,18.64
2023-08-12T00:31:03.162Z,18.56
2023-08-12T00:33:30.716Z,18.47
2023-08-12T00:35:58.109Z,18.50
2023-08-12T00:38:25.573Z,18.46
2023-08-12T00:40:53.071Z,18.40
2023-08-12T00:43:20.427Z,18.25
2023-08-12T00:45:47.995Z,18.15
2023-08-12T00:48:15.677Z,18.23
2023-08-12T00:50:43.065Z,18.24
2023-08-12T00:53:11.070Z,18.24
2023-08-12T00:55:39.116Z,18.24
2023-08-12T00:58:06.820Z,18.14
2023-08-12T01:00:34.602Z,18.04
2023-08-12T01:03:02.754Z,18.09
2023-08-12T01:05:31.381Z,18.11
2023-08-12T01:07:58.865Z,18.06
2023-08-12T01:10:28.025Z,18.06
2023-08-12T01:13:00.674Z,18.13
2023-08-12T01:15:28.102Z,18.14
2023-08-12T01:17:55.830Z,18.11
2023-08-12T01:20:27.737Z,18.01
2023-08-12T01:23:19.696Z,18.02
2023-08-12T01:25:47.396Z,18.12
2023-08-12T01:28:15.681Z,18.12
2023-08-12T01:30:52.413Z,17.99
2023-08-12T01:33:30.061Z,18.00
2023-08-12T01:36:16.098Z,18.07
2023-08-12T01:38:43.453Z,18.08
2023-08-12T01:41:11.404Z,18.01
2023-08-12T01:43:39.634Z,17.90
2023-08-12T01:46:07.392Z,17.96
2023-08-12T01:48:34.965Z,17.97
2023-08-12T01:51:03.415Z,17.97
2023-08-12T01:53:30.779Z,17.97
2023-08-12T01:55:58.330Z,17.98
2023-08-12T01:58:27.693Z,17.99
2023-08-12T02:00:55.133Z,18.02
2023-08-12T02:03:22.615Z,17.99
2023-08-12T02:05:50.414Z,17.97
2023-08-12T02:08:17.878Z,18.00
2023-08-12T02:10:45.678Z,17.98
2023-08-12T02:13:13.122Z,17.89
2023-08-12T02:15:40.514Z,17.86
2023-08-12T02:18:13.265Z,17.92
2023-08-12T02:20:42.343Z,17.92
2023-08-12T02:23:09.703Z,17.87
2023-08-12T02:25:37.272Z,17.84
2023-08-12T02:28:05.379Z,17.83
2023-08-12T02:30:32.724Z,17.81
2023-08-12T02:33:00.132Z,17.81
2023-08-12T02:35:27.696Z,17.81
2023-08-12T02:37:55.184Z,17.81
2023-08-12T02:40:23.187Z,17.73
2023-08-12T02:42:50.597Z,17.69
2023-08-12T02:45:19.709Z,17.73
2023-08-12T02:47:47.401Z,17.72
2023-08-12T02:50:14.902Z,17.69
2023-08-12T02:52:42.245Z,17.65
2023-08-12T02:55:10.164Z,17.62
2023-08-12T02:57:37.578Z,17.61
2023-08-12T03:00:06.557Z,17.60
2023-08-12T03:02:34.089Z,17.62
2023-08-12T03:05:01.630Z,17.59
2023-08-12T03:07:29.634Z,17.57
2023-08-12T03:09:57.073Z,17.58
2023-08-12T03:12:24.859Z,17.58
2023-08-12T03:14:52.562Z,17.60
2023-08-12T03:17:19.978Z,17.60
2023-08-12T03:19:47.376Z,17.60
2023-08-12T03:22:15.822Z,17.60
2023-08-12T03:24:43.238Z,17.57
2023-08-12T03:27:11.364Z,17.57
2023-08-12T03:29:39.557Z,17.56
2023-08-12T03:32:07.084Z,17.58
2023-08-12T03:34:34.681Z,17.61
2023-08-12T03:37:02.750Z,17.65
2023-08-12T03:39:30.211Z,17.68
2023-08-12T03:41:58.513Z,17.68
2023-08-12T03:44:25.908Z,17.68
2023-08-12T03:46:53.495Z,17.66
2023-08-12T03:49:22.524Z,17.69
2023-08-12T03:51:50.816Z,17.74
2023-08-12T03:54:19.187Z,17.77
2023-08-12T03:56:46.598Z,17.83
2023-08-12T03:59:14.079Z,17.80
2023-08-12T04:01:42.722Z,17.81
2023-08-12T04:04:12.432Z,17.83
2023-08-12T04:06:41.899Z,17.87
2023-08-12T04:09:09.345Z,17.92
2023-08-12T04:11:36.893Z,17.98
2023-08-12T04:14:04.457Z,17.98
2023-08-12T04:16:31.860Z,17.99
2023-08-12T04:18:59.249Z,18.04
2023-08-12T04:21:27.120Z,18.13
2023-08-12T04:23:54.749Z,18.20
2023-08-12T04:26:22.268Z,18.24
2023-08-12T04:28:49.662Z,18.29
2023-08-12T04:31:17.491Z,18.40
2023-08-12T04:33:45.082Z,18.53
2023-08-12T04:36:12.850Z,18.56
2023-08-12T04:38:40.682Z,18.57
2023-08-12T04:41:09.464Z,18.55
2023-08-12T04:43:37.297Z,18.60
2023-08-12T04:46:05.020Z,18.77
2023-08-12T04:48:32.751Z,18.85
2023-08-12T04:51:04.360Z,18.86
2023-08-12T04:53:31.869Z,18.88
2023-08-12T04:55:59.681Z,18.99
2023-08-12T04:58:27.903Z,19.06
2023-08-12T05:00:55.369Z,19.06
2023-08-12T05:03:23.338Z,19.11
2023-08-12T05:05:53.165Z,19.09
2023-08-12T05:08:21.957Z,19.01
2023-08-12T05:10:50.136Z,18.98
2023-08-12T05:13:17.898Z,18.99
2023-08-12T05:15:48.633Z,19.04
2023-08-12T05:18:16.504Z,19.04
2023-08-12T05:20:46.465Z,19.08
2023-08-12T05:23:14.225Z,19.16
2023-08-12T05:25:42.161Z,19.25
2023-08-12T05:28:09.780Z,19.19
2023-08-12T05:30:37.165Z,19.23
2023-08-12T05:33:05.265Z,19.32
2023-08-12T05:35:36.493Z,19.34
2023-08-12T05:38:04.160Z,19.34
2023-08-12T05:40:31.827Z,19.35
2023-08-12T05:42:59.197Z,19.36
2023-08-12T05:45:26.645Z,19.35
2023-08-12T05:47:54.130Z,19.29
2023-08-12T05:50:21.659Z,19.26
2023-08-12T05:52:49.155Z,19.36
2023-08-12T05:55:16.620Z,19.41
2023-08-12T05:57:43.980Z,19.41
2023-08-12T06:00:12.549Z,19.33
2023-08-12T06:02:40.965Z,19.36
2023-08-12T06:05:09.333Z,19.45
2023-08-12T06:07:36.831Z,19.45
2023-08-12T06:10:05.402Z,19.48
2023-08-12T06:12:32.886Z,19.44
2023-08-12T06:15:00.347Z,19.42
2023-08-12T06:17:27.888Z,19.53
2023-08-12T06:19:55.206Z,19.69
2023-08-12T06:22:22.576Z,19.71
2023-08-12T06:24:49.901Z,19.80
2023-08-12T06:27:17.410Z,19.96
2023-08-12T06:29:45.075Z,19.92
2023-08-12T06:32:14.464Z,19.81
2023-08-12T06:34:42.618Z,19.83
2023-08-12T06:37:10.119Z,20.10
2023-08-12T06:39:37.603Z,20.31
2023-08-12T06:42:05.802Z,20.42
2023-08-12T06:44:34.175Z,20.64
2023-08-12T06:47:01.592Z,20.90
2023-08-12T06:49:28.942Z,21.02
2023-08-12T06:51:56.360Z,21.09
2023-08-12T06:54:24.164Z,21.22
2023-08-12T06:56:51.615Z,21.40
2023-08-12T06:59:19.309Z,21.39
2023-08-12T07:01:46.806Z,21.42
2023-08-12T07:04:14.339Z,21.51
2023-08-12T07:06:41.730Z,21.82
2023-08-12T07:09:09.632Z,21.90
2023-08-12T07:11:37.207Z,21.97
2023-08-12T07:14:04.994Z,22.03
2023-08-12T07:16:32.552Z,22.04
2023-08-12T07:18:59.974Z,22.12
2023-08-12T07:21:27.520Z,22.29
2023-08-12T07:26:29.425Z,22.23
2023-08-12T07:28:57.753Z,22.28
2023-08-12T07:31:25.217Z,22.37
2023-08-12T07:33:52.746Z,22.43
2023-08-12T07:36:20.095Z,22.67
2023-08-12T07:38:47.493Z,22.86
2023-08-12T07:41:14.889Z,22.84
2023-08-12T07:43:42.262Z,22.87
2023-08-12T07:46:10.452Z,23.01
2023-08-12T07:48:39.626Z,23.07
2023-08-12T07:51:07.294Z,23.08
2023-08-12T07:53:34.738Z,23.10
2023-08-12T07:56:02.216Z,23.18
2023-08-12T07:58:29.684Z,23.23
2023-08-12T08:00:57.008Z,23.30
2023-08-12T08:03:24.590Z,23.45
2023-08-12T08:05:52.001Z,23.58
2023-08-12T08:08:21.317Z,23.57
2023-08-12T08:10:48.866Z,23.55
2023-08-12T08:13:16.445Z,23.43
2023-08-12T08:15:43.815Z,23.17
2023-08-12T08:18:11.458Z,22.97
2023-08-12T08:20:39.153Z,22.97
2023-08-12T08:23:06.832Z,23.05
2023-08-12T08:25:34.332Z,23.08
2023-08-12T08:28:01.709Z,22.99
2023-08-12T08:30:29.234Z,22.88
2023-08-12T08:32:56.888Z,22.85
2023-08-12T08:35:24.332Z,22.82
2023-08-12T08:37:51.729Z,22.81
2023-08-12T08:40:21.691Z,22.87
2023-08-12T08:42:53.768Z,22.87
2023-08-12T08:45:23.354Z,22.87
2023-08-12T08:47:51.043Z,22.84
2023-08-12T08:50:18.854Z,22.79
2023-08-12T08:52:46.540Z,22.79
2023-08-12T08:55:14.012Z,22.90
2023-08-12T08:57:43.097Z,22.97
2023-08-12T09:00:19.054Z,23.00
2023-08-12T09:02:49.740Z,22.98
2023-08-12T09:05:18.161Z,23.05
2023-08-12T09:07:46.166Z,23.23
2023-08-12T09:10:15.657Z,23.37
2023-08-12T09:12:44.578Z,23.52
2023-08-12T09:15:12.039Z,23.60
2023-08-12T09:17:39.872Z,23.66
2023-08-12T09:20:13.121Z,23.80
2023-08-12T09:23:54.885Z,23.87
2023-08-12T09:26:22.495Z,24.31
2023-08-12T09:28:50.320Z,24.63
2023-08-12T09:31:25.895Z,24.92
2023-08-12T09:33:53.954Z,25.03
2023-08-12T09:36:23.462Z,25.13
2023-08-12T09:38:50.887Z,25.23
2023-08-12T09:41:18.285Z,25.25
2023-08-12T09:43:45.720Z,25.23
2023-08-12T09:46:15.199Z,25.11
2023-08-12T09:48:42.848Z,25.02
2023-08-12T09:51:10.303Z,24.97
2023-08-12T09:53:37.968Z,24.96
2023-08-12T09:56:09.130Z,24.95
2023-08-12T09:58:38.297Z,24.95
2023-08-12T10:01:06.084Z,24.99
2023-08-12T10:03:34.700Z,25.07
2023-08-12T10:06:04.389Z,25.13
2023-08-12T10:08:31.782Z,25.13
2023-08-12T10:11:11.292Z,25.13
2023-08-12T10:13:43.853Z,25.15
2023-08-12T10:16:12.701Z,25.26
2023-08-12T10:18:40.866Z,25.30
2023-08-12T10:21:11.149Z,25.31
2023-08-12T10:23:38.558Z,25.24
2023-08-12T10:26:06.814Z,25.10
2023-08-12T10:28:38.465Z,25.03
2023-08-12T10:31:07.224Z,25.05
2023-08-12T10:33:38.767Z,25.09
2023-08-12T10:36:06.738Z,25.19
2023-08-12T10:38:34.742Z,25.32
2023-08-12T10:41:22.166Z,25.44
2023-08-12T10:43:55.990Z,25.46
2023-08-12T10:46:32.104Z,25.44
2023-08-12T10:49:02.838Z,25.57
2023-08-12T10:51:50.112Z,25.72
2023-08-12T10:54:19.158Z,25.81
2023-08-12T10:57:12.624Z,25.82
2023-08-12T10:59:46.632Z,25.78
2023-08-12T11:02:17.905Z,25.71
2023-08-12T11:04:46.169Z,25.76
2023-08-12T11:07:24.824Z,25.70
2023-08-12T11:09:56.193Z,25.69
2023-08-12T11:12:34.637Z,25.70
2023-08-12T11:15:02.664Z,25.62
2023-08-12T11:17:33.144Z,25.47
2023-08-12T11:20:01.318Z,25.31
2023-08-12T11:22:28.790Z,25.27
2023-08-12T11:24:56.186Z,25.21
2023-08-12T11:27:24.131Z,25.15
2023-08-12T11:29:52.650Z,25.20
2023-08-12T11:32:20.371Z,25.29
2023-08-12T11:34:48.038Z,25.33
2023-08-12T11:37:15.403Z,25.39
2023-08-12T11:39:42.828Z,25.46
2023-08-12T11:42:10.460Z,25.56
2023-08-12T11:44:38.109Z,25.74
2023-08-12T11:47:05.828Z,26.05
2023-08-12T11:49:33.300Z,26.43
2023-08-12T11:52:00.629Z,26.72
2023-08-12T11:54:29.950Z,26.87
2023-08-12T11:56:58.386Z,26.83
2023-08-12T11:59:27.422Z,26.75
2023-08-12T12:01:55.928Z,26.70
2023-08-12T12:04:23.804Z,26.63
2023-08-12T12:06:51.365Z,26.62
2023-08-12T12:09:19.662Z,26.68
2023-08-12T12:11:47.170Z,26.79
2023-08-12T12:14:14.770Z,26.86
2023-08-12T12:16:43.634Z,26.86
2023-08-12T12:19:17.291Z,26.79
2023-08-12T12:21:53.004Z,26.61
2023-08-12T12:24:21.180Z,26.37
2023-08-12T12:26:48.552Z,26.30
2023-08-12T12:29:16.077Z,26.38
2023-08-12T12:31:43.769Z,26.56
2023-08-12T12:34:11.289Z,26.65
2023-08-12T12:36:39.260Z,26.67
2023-08-12T12:39:06.835Z,26.83
2023-08-12T12:41:34.257Z,26.90
2023-08-12T12:44:03.438Z,26.95
2023-08-12T12:46:31.102Z,26.95
2023-08-12T12:48:58.657Z,26.79
2023-08-12T12:51:26.079Z,26.63
2023-08-12T12:53:53.556Z,26.45
2023-08-12T12:56:20.911Z,26.25
2023-08-12T12:58:48.590Z,26.07
2023-08-12T13:01:16.352Z,25.99
2023-08-12T13:03:43.847Z,25.98
2023-08-12T13:06:11.431Z,25.98
2023-08-12T13:08:39.019Z,26.00
2023-08-12T13:11:06.370Z,26.02
2023-08-12T13:13:33.768Z,26.00
2023-08-12T13:16:01.184Z,26.02
2023-08-12T13:18:28.626Z,26.10
2023-08-12T13:20:56.521Z,26.16
2023-08-12T13:23:23.897Z,26.15
2023-08-12T13:25:51.324Z,26.09
2023-08-12T13:28:18.804Z,25.98
2023-08-12T13:30:46.712Z,25.85
2023-08-12T13:33:14.176Z,25.42
2023-08-12T13:35:41.531Z,24.70
2023-08-12T13:38:08.950Z,24.04
2023-08-12T13:40:36.390Z,23.64
2023-08-12T13:43:04.007Z,23.45
2023-08-12T13:45:31.441Z,23.42
2023-08-12T13:47:58.911Z,23.64
2023-08-12T13:50:26.614Z,23.77
2023-08-12T13:52:53.998Z,23.83
2023-08-12T13:55:21.737Z,23.90
2023-08-12T13:57:49.315Z,24.05
2023-08-12T14:00:16.953Z,24.25
2023-08-12T14:02:44.895Z,24.48
2023-08-12T14:05:12.612Z,24.65
2023-08-12T14:07:40.111Z,24.72
2023-08-12T14:10:09.340Z,24.68
2023-08-12T14:12:36.934Z,24.66
2023-08-12T14:15:05.353Z,24.68
2023-08-12T14:17:32.984Z,24.73
2023-08-12T14:20:01.000Z,24.78
2023-08-12T14:22:29.181Z,24.84
2023-08-12T14:27:29.013Z,24.96
2023-08-12T14:29:56.413Z,25.16
2023-08-12T14:32:23.811Z,25.34
2023-08-12T14:34:51.301Z,25.49
2023-08-12T14:37:19.865Z,25.55
2023-08-12T14:39:47.322Z,25.54
2023-08-12T14:42:15.012Z,25.64
2023-08-12T14:44:42.504Z,25.89
2023-08-12T14:47:10.280Z,26.27
2023-08-12T14:49:37.980Z,26.67
2023-08-12T14:52:05.365Z,27.04
2023-08-12T14:54:32.814Z,27.36
2023-08-12T14:57:00.365Z,27.62
2023-08-12T14:59:27.718Z,27.59
2023-08-12T15:01:55.087Z,27.58
2023-08-12T15:04:23.029Z,27.58
2023-08-12T15:06:50.394Z,27.54
2023-08-12T15:09:17.982Z,27.67
2023-08-12T15:11:46.022Z,27.86
2023-08-12T15:14:13.482Z,27.89
2023-08-12T15:16:41.205Z,27.72
2023-08-12T15:19:09.204Z,27.66
2023-08-12T15:21:36.570Z,27.47
2023-08-12T15:24:04.922Z,27.12
2023-08-12T15:26:33.060Z,26.73
2023-08-12T15:29:00.755Z,26.45
2023-08-12T15:31:28.560Z,26.25
2023-08-12T15:33:56.403Z,26.08
2023-08-12T15:36:24.052Z,25.91
2023-08-12T15:38:51.467Z,25.71
2023-08-12T15:41:18.989Z,25.56
2023-08-12T15:43:46.367Z,25.53
2023-08-12T15:46:13.770Z,25.61
2023-08-12T15:48:41.475Z,25.68
2023-08-12T15:51:08.873Z,25.70
2023-08-12T15:53:36.269Z,25.77
2023-08-12T15:56:03.758Z,25.85
2023-08-12T15:58:31.703Z,25.81
2023-08-12T16:00:59.109Z,25.64
2023-08-12T16:03:26.649Z,25.44
2023-08-12T16:05:58.186Z,25.26
2023-08-12T16:08:25.658Z,25.12
2023-08-12T16:10:53.104Z,25.10
2023-08-12T16:13:20.506Z,25.27
2023-08-12T16:15:48.374Z,25.59
2023-08-12T16:18:15.928Z,25.88
2023-08-12T16:20:43.740Z,26.12
2023-08-12T16:23:11.086Z,26.32
2023-08-12T16:25:38.576Z,26.45
2023-08-12T16:28:06.036Z,26.49
2023-08-12T16:30:33.503Z,26.54
2023-08-12T16:33:01.055Z,26.59
2023-08-12T16:35:28.650Z,26.65
2023-08-12T16:37:56.013Z,26.69
2023-08-12T16:40:23.536Z,26.68
2023-08-12T16:42:51.097Z,26.64
2023-08-12T16:45:18.868Z,26.57
2023-08-12T16:47:46.345Z,26.51
2023-08-12T16:50:13.733Z,26.50
2023-08-12T16:52:41.597Z,26.50
2023-08-12T16:55:09.853Z,26.47
2023-08-12T16:57:37.298Z,26.34
2023-08-12T17:00:06.526Z,26.17
2023-08-12T17:02:33.903Z,26.04
2023-08-12T17:05:01.376Z,25.98
2023-08-12T17:07:28.979Z,25.91
2023-08-12T17:09:59.409Z,25.80
2023-08-12T17:12:27.232Z,25.62
2023-08-12T17:14:54.855Z,25.41
2023-08-12T17:17:22.854Z,25.18
2023-08-12T17:19:50.228Z,25.00
2023-08-12T17:22:18.283Z,24.79
2023-08-12T17:24:47.118Z,24.59
2023-08-12T17:27:14.758Z,24.42
2023-08-12T17:29:42.144Z,24.24
2023-08-12T17:32:09.571Z,24.10
2023-08-12T17:34:36.921Z,23.97
2023-08-12T17:37:05.159Z,23.86
2023-08-12T17:39:32.604Z,23.76
2023-08-12T17:42:00.529Z,23.69
2023-08-12T17:44:27.910Z,23.61
2023-08-12T17:46:55.274Z,23.53
2023-08-12T17:49:22.649Z,23.46
2023-08-12T17:51:50.216Z,23.39
2023-08-12T17:54:17.801Z,23.32
2023-08-12T17:56:46.053Z,23.28
2023-08-12T17:59:13.612Z,23.24
2023-08-12T18:01:41.220Z,23.19
2023-08-12T18:04:08.597Z,23.16
2023-08-12T18:06:35.972Z,23.11
2023-08-12T18:09:06.220Z,23.06
2023-08-12T18:11:37.018Z,23.04
2023-08-12T18:14:04.664Z,23.01
2023-08-12T18:16:32.359Z,22.99
2023-08-12T18:19:00.353Z,22.97
2023-08-12T18:21:28.039Z,22.95
2023-08-12T18:23:55.734Z,22.92
2023-08-12T18:26:23.079Z,22.89
2023-08-12T18:28:50.777Z,22.87
2023-08-12T18:31:18.146Z,22.85
2023-08-12T18:33:45.518Z,22.83
2023-08-12T18:36:12.949Z,22.80
2023-08-12T18:38:40.430Z,22.80
2023-08-12T18:41:08.204Z,22.78
2023-08-12T18:43:35.596Z,22.76
2023-08-12T18:46:04.069Z,22.72
2023-08-12T18:48:31.548Z,22.71
2023-08-12T18:50:58.921Z,22.69
2023-08-12T18:53:28.462Z,22.66
2023-08-12T18:55:55.899Z,22.62
2023-08-12T18:58:23.300Z,22.61
2023-08-12T19:00:50.728Z,22.58
2023-08-12T19:03:18.310Z,22.55
2023-08-12T19:05:47.383Z,22.51
2023-08-12T19:08:16.926Z,22.47
2023-08-12T19:10:45.336Z,22.43
2023-08-12T19:13:12.889Z,22.38
2023-08-12T19:15:40.450Z,22.35
2023-08-12T19:18:08.185Z,22.31
2023-08-12T19:20:35.749Z,22.25
2023-08-12T19:23:03.441Z,22.22
2023-08-12T19:25:31.592Z,22.19
2023-08-12T19:27:59.029Z,22.16
2023-08-12T19:30:26.369Z,22.12
2023-08-12T19:32:54.464Z,22.05
2023-08-12T19:35:22.266Z,22.02
2023-08-12T19:37:49.901Z,21.98
2023-08-12T19:40:17.730Z,21.95
2023-08-12T19:42:45.231Z,21.92
2023-08-12T19:45:12.808Z,21.89
2023-08-12T19:47:41.414Z,21.85
2023-08-12T19:50:09.855Z,21.82
2023-08-12T19:52:37.462Z,21.80
2023-08-12T19:55:06.051Z,21.75
2023-08-12T19:57:34.110Z,21.72
2023-08-12T20:00:01.589Z,21.68
2023-08-12T20:02:40.515Z,21.64
2023-08-12T20:05:15.458Z,21.61
2023-08-12T20:07:44.001Z,21.58
2023-08-12T20:10:11.604Z,21.57
2023-08-12T20:12:39.111Z,21.55
2023-08-12T20:15:07.448Z,21.52
2023-08-12T20:17:35.009Z,21.49
2023-08-12T20:20:04.307Z,21.45
2023-08-12T20:22:31.725Z,21.42
2023-08-12T20:24:59.095Z,21.38
2023-08-12T20:27:26.443Z,21.35
2023-08-12T20:29:53.819Z,21.32
2023-08-12T20:32:21.233Z,21.28
2023-08-12T20:34:48.999Z,21.24
2023-08-12T20:37:16.661Z,21.20
2023-08-12T20:39:44.280Z,21.16
2023-08-12T20:42:11.675Z,21.13
2023-08-12T20:44:39.165Z,21.09
2023-08-12T20:47:06.507Z,21.05
2023-08-12T20:49:33.866Z,21.01
2023-08-12T20:52:01.244Z,20.94
2023-08-12T20:54:28.703Z,20.91
2023-08-12T20:56:56.122Z,20.88
2023-08-12T20:59:23.577Z,20.83
2023-08-12T21:01:51.095Z,20.79
2023-08-12T21:04:18.491Z,20.76
2023-08-12T21:06:45.993Z,20.73
2023-08-12T21:09:13.876Z,20.71
2023-08-12T21:11:41.411Z,20.70
2023-08-12T21:14:08.863Z,20.67
2023-08-12T21:16:36.346Z,20.64
2023-08-12T21:19:03.715Z,20.63
2023-08-12T21:21:31.141Z,20.61
2023-08-12T21:23:58.670Z,20.59
2023-08-12T21:26:26.028Z,20.56
2023-08-12T21:28:53.498Z,20.54
2023-08-12T21:31:21.047Z,20.48
2023-08-12T21:33:48.645Z,20.45
2023-08-12T21:36:16.403Z,20.42
2023-08-12T21:41:36.079Z,20.13
2023-08-12T21:44:05.015Z,20.31
2023-08-12T21:46:32.372Z,20.28
2023-08-12T21:48:59.763Z,20.27
2023-08-12T21:51:27.130Z,20.25
2023-08-12T21:53:54.520Z,20.22
2023-08-12T21:56:21.927Z,20.19
2023-08-12T21:58:49.404Z,20.16
2023-08-12T22:01:16.774Z,20.11
2023-08-12T22:03:44.731Z,20.09
2023-08-12T22:06:12.134Z,20.06
2023-08-12T22:08:39.736Z,20.05
2023-08-12T22:11:07.297Z,20.01
2023-08-12T22:13:34.770Z,19.97
2023-08-12T22:16:02.213Z,19.91
2023-08-12T22:18:29.795Z,19.87
2023-08-12T22:20:57.170Z,19.86
2023-08-12T22:23:24.518Z,19.84
2023-08-12T22:25:52.173Z,19.81
2023-08-12T22:28:20.779Z,19.78
2023-08-12T22:30:48.731Z,19.74
2023-08-12T22:33:16.756Z,19.70
2023-08-12T22:35:44.244Z,19.68
2023-08-12T22:38:11.633Z,19.67
2023-08-12T22:40:39.092Z,19.65
2023-08-12T22:43:06.429Z,19.63
2023-08-12T22:45:34.756Z,19.62
2023-08-12T22:48:02.368Z,19.61
2023-08-12T22:50:29.850Z,19.58
2023-08-12T22:52:57.241Z,19.55
2023-08-12T22:55:24.674Z,19.52
2023-08-12T22:57:52.028Z,19.46
2023-08-12T23:00:20.193Z,19.42
2023-08-12T23:02:47.768Z,19.39
2023-08-12T23:05:15.390Z,19.36
2023-08-12T23:07:42.765Z,19.51
2023-08-12T23:10:10.990Z,19.45
2023-08-12T23:12:38.535Z,19.33
2023-08-12T23:15:08.190Z,19.23
2023-08-12T23:17:36.026Z,19.17
2023-08-12T23:20:06.556Z,19.11
2023-08-12T23:22:33.982Z,19.01
2023-08-12T23:25:01.743Z,18.93
2023-08-12T23:27:29.075Z,19.01
2023-08-12T23:29:56.424Z,19.02
2023-08-12T23:32:24.032Z,18.86
2023-08-12T23:34:51.399Z,18.70
2023-08-12T23:37:18.797Z,18.57
2023-08-12T23:39:46.190Z,18.47
2023-08-12T23:42:14.003Z,18.55
2023-08-12T23:44:41.714Z,18.58
2023-08-12T23:47:09.273Z,18.43
2023-08-12T23:49:36.616Z,18.29
2023-08-12T23:52:04.594Z,18.15
2023-08-12T23:54:31.986Z,18.11
2023-08-12T23:57:00.823Z,18.23
2023-08-12T23:59:28.177Z,18.09
